Hobbema, Canada
Current Conditions -  °F | °C
As of 11:00 PM on Monday 20 Oct 2014 (Local Time) from CYEG Reporting Station
Broken Clouds Broken Clouds  
Wind Chill:   Ceiling: 27000
Heat Index:   Visibility: 15mi
Dew Point:   Wind: 2mph
Humidity: 76%   Direction: NA
Pressure: 29.49"   Gusts: NA
Location:  52.83°N, 113.45°W
Report Text: CYEG 210500Z VRB02KT 15SM BKN270 06/02 A2949 RMK CI5 SLP996
Loading
Personal Weather Stations






























Interactive Weather Map
Tropical Storm Tracking
New forecast layout! Learn more

10-Day Weather Forecast

Advertisements
Track Severe Weather on mobile